Time;durP1;ratioP1;P1;durP2;ratioP2;P2;SDS_P1;SDS_P2;PMS_P1;PMS_P2;Temp;Humidity;BMP_temperature;BMP_pressure;BME280_temperature;BME280_humidity;BME280_pressure;Samples;Min_cycle;Max_cycle;Signal;HPM_P1;HPM_P2
2023/12/21 00:01:44;;;;;;;11.90;2.33;;;;;;;3.83;100.00;99321.16;4739474;60;1136475;-77
2023/12/21 00:06:49;;;;;;;15.48;3.25;;;;;;;3.82;100.00;99302.95;4720630;60;1136970;-76
2023/12/21 00:11:55;;;;;;;14.37;3.00;;;;;;;3.79;100.00;99307.11;4661777;61;1136972;-75
2023/12/21 00:17:01;;;;;;;13.53;2.43;;;;;;;3.76;100.00;99282.00;4680307;59;1136471;-77
2023/12/21 00:22:06;;;;;;;11.73;2.50;;;;;;;3.74;100.00;99288.28;4662296;58;1136837;-78
2023/12/21 00:27:12;;;;;;;12.63;3.17;;;;;;;3.72;100.00;99282.31;4726268;60;1136586;-76
2023/12/21 00:32:18;;;;;;;9.77;3.93;;;;;;;3.69;100.00;99274.20;4680512;61;1136537;-76
2023/12/21 00:37:23;;;;;;;10.27;3.47;;;;;;;3.71;100.00;99274.11;4661982;61;1134398;-78
2023/12/21 00:42:29;;;;;;;7.77;1.80;;;;;;;3.72;100.00;99262.70;4661752;60;1136590;-76
2023/12/21 00:47:35;;;;;;;8.50;2.70;;;;;;;3.72;100.00;99257.47;4679744;60;1134534;-77
2023/12/21 00:52:40;;;;;;;12.37;1.83;;;;;;;3.71;100.00;99246.17;4634336;61;1134426;-76
2023/12/21 00:57:46;;;;;;;4.83;1.67;;;;;;;3.68;100.00;99241.63;4727234;59;1136501;-77
2023/12/21 01:02:51;;;;;;;9.90;2.50;;;;;;;3.68;100.00;99228.55;4739486;60;1134526;-78
2023/12/21 01:07:58;;;;;;;8.90;1.83;;;;;;;3.70;100.00;99226.20;4648452;61;1134526;-76
2023/12/21 01:13:03;;;;;;;5.53;1.30;;;;;;;3.67;100.00;99212.03;4661196;59;1134730;-77
2023/12/21 01:18:09;;;;;;;5.83;1.90;;;;;;;3.68;100.00;99206.33;4679765;61;1134613;-77
2023/12/21 01:23:16;;;;;;;10.10;2.27;;;;;;;3.69;100.00;99196.23;4659604;61;1134588;-75
2023/12/21 01:28:22;;;;;;;8.30;2.23;;;;;;;3.65;100.00;99183.05;4710553;60;1136583;-77
2023/12/21 01:33:27;;;;;;;5.73;1.40;;;;;;;3.63;100.00;99170.55;4754801;60;1134584;-75
2023/12/21 01:38:33;;;;;;;7.47;2.00;;;;;;;3.59;100.00;99162.08;4725274;60;1134569;-78
2023/12/21 01:43:39;;;;;;;3.27;1.30;;;;;;;3.57;100.00;99148.27;4711073;60;1134510;-78
2023/12/21 01:48:46;;;;;;;4.05;0.93;;;;;;;3.54;100.00;99134.95;4791255;60;1134701;-76
2023/12/21 01:53:53;;;;;;;3.97;1.27;;;;;;;3.49;100.00;99138.38;4835641;60;1134681;-76
2023/12/21 01:58:59;;;;;;;2.57;1.83;;;;;;;3.46;100.00;99118.98;4773984;60;1134577;-76
2023/12/21 02:04:05;;;;;;;7.03;1.67;;;;;;;3.47;100.00;99111.98;4668309;60;1134626;-77
2023/12/21 02:09:13;;;;;;;3.90;1.47;;;;;;;3.44;100.00;99084.28;4744839;60;1134922;-76
2023/12/21 02:14:18;;;;;;;4.87;2.60;;;;;;;3.41;100.00;99077.13;4668386;59;1134512;-79
2023/12/21 02:19:25;;;;;;;3.70;1.60;;;;;;;3.39;100.00;99060.24;4690350;60;1134785;-76
2023/12/21 02:24:30;;;;;;;1.33;1.20;;;;;;;3.38;100.00;99041.58;4728146;61;1134788;-78
2023/12/21 02:29:36;;;;;;;3.87;1.67;;;;;;;3.35;100.00;99037.08;4679021;60;1134635;-77
2023/12/21 02:34:41;;;;;;;3.47;1.00;;;;;;;3.32;100.00;99012.46;4781088;59;1134501;-78
2023/12/21 02:39:47;;;;;;;4.08;1.45;;;;;;;3.32;100.00;99005.46;4728761;60;1134523;-76
2023/12/21 02:44:52;;;;;;;8.60;1.33;;;;;;;3.33;100.00;98982.78;4770782;61;1134617;-77
2023/12/21 02:49:58;;;;;;;2.23;1.23;;;;;;;3.30;100.00;98968.62;4751895;60;1134459;-74
2023/12/21 02:55:04;;;;;;;1.83;1.70;;;;;;;3.30;100.00;98951.64;4758155;59;1134397;-77
2023/12/21 03:00:10;;;;;;;5.07;1.33;;;;;;;3.29;100.00;98935.60;4795188;60;1134641;-77
2023/12/21 03:05:16;;;;;;;2.93;0.87;;;;;;;3.27;100.00;98919.20;4819774;59;1134767;-79
2023/12/21 03:10:22;;;;;;;1.50;1.00;;;;;;;3.27;100.00;98908.75;4828075;59;1134183;-78
2023/12/21 03:15:28;;;;;;;3.27;1.20;;;;;;;3.28;100.00;98893.44;4835786;60;1134590;-74
2023/12/21 03:20:33;;;;;;;1.77;1.67;;;;;;;3.29;100.00;98868.51;4816869;60;1134107;-76
2023/12/21 03:25:39;;;;;;;1.90;1.00;;;;;;;3.27;100.00;98844.27;4817633;60;1134459;-73
2023/12/21 03:30:45;;;;;;;1.12;1.00;;;;;;;3.26;100.00;98830.84;4824039;60;1134597;-80
2023/12/21 03:35:50;;;;;;;1.27;1.27;;;;;;;3.29;100.00;98829.79;4923336;58;1134646;-77
2023/12/21 03:40:56;;;;;;;1.00;1.00;;;;;;;3.30;100.00;98824.92;4901374;59;1134932;-74
2023/12/21 03:46:01;;;;;;;1.70;1.40;;;;;;;3.31;100.00;98808.30;4900663;58;1134703;-73
2023/12/21 03:51:07;;;;;;;1.87;1.77;;;;;;;3.33;100.00;98798.58;4904199;58;1134454;-75
2023/12/21 03:56:12;;;;;;;1.10;1.10;;;;;;;3.34;100.00;98790.63;4827686;58;1134632;-78
2023/12/21 04:01:26;;;;;;;1.90;1.33;;;;;;;3.33;100.00;98781.12;4816016;58;1134580;-75
2023/12/21 04:06:32;;;;;;;;;;;;;;;3.37;100.00;98761.63;4920871;58;1134918;-78
2023/12/21 04:11:37;;;;;;;1.13;1.13;;;;;;;3.40;100.00;98752.25;4965029;58;971911;-77
2023/12/21 04:16:43;;;;;;;2.10;1.52;;;;;;;3.43;100.00;98740.27;5008232;57;1132444;-77
2023/12/21 04:21:48;;;;;;;2.90;1.63;;;;;;;3.46;100.00;98724.35;4974836;58;1134518;-75
2023/12/21 04:26:54;;;;;;;1.07;1.07;;;;;;;3.49;100.00;98720.67;4955796;58;1134856;-75
2023/12/21 04:32:00;;;;;;;3.60;2.40;;;;;;;3.51;100.00;98703.91;4930048;57;1134513;-76
2023/12/21 04:37:05;;;;;;;3.37;2.27;;;;;;;3.53;100.00;98689.41;4920440;59;1134375;-76
2023/12/21 04:42:11;;;;;;;1.97;1.67;;;;;;;3.54;100.00;98678.84;4901328;58;1134554;-79
2023/12/21 04:47:16;;;;;;;1.80;1.70;;;;;;;3.59;100.00;98673.73;4902676;57;1134543;-77
2023/12/21 04:52:22;;;;;;;1.97;1.87;;;;;;;3.61;100.00;98660.91;4908037;58;1134417;-75
2023/12/21 04:57:27;;;;;;;2.20;1.83;;;;;;;3.63;100.00;98651.64;4833863;58;1206654;-79
2023/12/21 05:02:33;;;;;;;2.60;2.03;;;;;;;3.64;100.00;98634.53;4852250;58;1238680;-76
2023/12/21 05:07:39;;;;;;;1.90;1.80;;;;;;;3.66;100.00;98622.66;4898477;58;1134676;-79
2023/12/21 05:12:44;;;;;;;1.83;1.53;;;;;;;3.70;100.00;98612.28;4888422;58;1172349;-78
2023/12/21 05:17:50;;;;;;;5.10;2.77;;;;;;;3.75;100.00;98612.75;4883740;58;1184684;-78
2023/12/21 05:22:55;;;;;;;9.60;3.10;;;;;;;3.78;100.00;98611.21;4957836;58;1134780;-70
2023/12/21 05:28:01;;;;;;;6.10;3.30;;;;;;;3.82;100.00;98609.98;4898774;58;1134393;-80
2023/12/21 05:33:06;;;;;;;3.07;2.67;;;;;;;3.86;100.00;98607.01;4905659;58;1134614;-87
2023/12/21 05:38:12;;;;;;;8.73;3.27;;;;;;;3.91;100.00;98591.44;4925729;58;1134381;-80
2023/12/21 05:43:19;;;;;;;6.30;3.30;;;;;;;3.94;100.00;98593.80;4882140;57;1134764;-76
2023/12/21 05:48:24;;;;;;;4.90;2.70;;;;;;;3.97;100.00;98585.72;4899770;58;1135184;-67
2023/12/21 05:53:32;;;;;;;9.50;3.40;;;;;;;4.00;100.00;98584.14;4934487;57;1231655;-76
2023/12/21 05:58:38;;;;;;;4.55;2.58;;;;;;;4.05;100.00;98574.97;4902982;58;1239783;-76
2023/12/21 06:03:43;;;;;;;3.22;1.72;;;;;;;4.08;100.00;98564.73;4855467;58;1235354;-77
2023/12/21 06:08:49;;;;;;;8.00;3.80;;;;;;;4.14;100.00;98557.67;4909469;57;1134486;-76
2023/12/21 06:13:55;;;;;;;3.53;1.77;;;;;;;4.16;100.00;98549.23;4889725;57;1173432;-75
2023/12/21 06:19:03;;;;;;;2.70;2.00;;;;;;;4.26;100.00;98554.55;4876295;58;1240160;-76
2023/12/21 06:24:09;;;;;;;5.57;2.73;;;;;;;4.30;100.00;98534.52;4923993;58;1250468;-74
2023/12/21 06:29:15;;;;;;;4.37;2.93;;;;;;;4.36;100.00;98526.64;4874619;58;1252643;-77
2023/12/21 06:34:20;;;;;;;4.40;2.43;;;;;;;4.41;100.00;98517.94;4726509;60;1135369;-78
2023/12/21 06:39:26;;;;;;;3.77;2.50;;;;;;;4.46;100.00;98523.12;4830687;58;1169112;-73
2023/12/21 06:44:32;;;;;;;2.87;2.00;;;;;;;4.49;100.00;98517.63;4758843;59;1252036;-75
2023/12/21 06:49:38;;;;;;;1.93;1.83;;;;;;;4.55;100.00;98504.03;4798079;58;1252461;-78
2023/12/21 06:54:43;;;;;;;3.35;2.60;;;;;;;4.60;100.00;98497.08;4735981;60;1248838;-70
2023/12/21 06:59:49;;;;;;;4.62;2.30;;;;;;;4.65;100.00;98484.43;4710916;60;1134480;-72
2023/12/21 07:04:54;;;;;;;4.00;2.02;;;;;;;4.70;100.00;98484.87;4786752;59;1160162;-73
2023/12/21 07:10:00;;;;;;;2.35;2.05;;;;;;;4.74;100.00;98479.70;4767061;60;1134668;-81
2023/12/21 07:15:07;;;;;;;1.20;1.20;;;;;;;4.80;100.00;98467.88;4845268;58;1173445;-80
2023/12/21 07:20:13;;;;;;;2.07;1.87;;;;;;;4.86;100.00;98462.13;4822956;58;1134782;-78
2023/12/21 07:25:18;;;;;;;1.00;0.70;;;;;;;4.92;100.00;98449.78;4779552;58;1136966;-80
2023/12/21 07:30:24;;;;;;;24.13;12.93;;;;;;;4.97;100.00;98441.05;4834524;58;1240209;-80
2023/12/21 07:35:30;;;;;;;5.00;4.57;;;;;;;5.03;100.00;98430.05;4781938;59;1146473;-78
2023/12/21 07:40:35;;;;;;;6.93;3.60;;;;;;;5.10;100.00;98416.73;4795834;59;1158999;-77
2023/12/21 07:45:41;;;;;;;2.70;2.47;;;;;;;5.16;100.00;98403.58;4783207;59;1136698;-82
2023/12/21 07:50:46;;;;;;;1.55;1.45;;;;;;;5.19;100.00;98403.31;4799612;59;1160531;-79
2023/12/21 07:55:52;;;;;;;3.20;3.00;;;;;;;5.26;100.00;98389.51;4810383;59;1134774;-84
2023/12/21 08:00:57;;;;;;;8.07;7.20;;;;;;;5.33;100.00;98375.87;4810151;59;1136835;-76
2023/12/21 08:06:05;;;;;;;5.58;5.05;;;;;;;5.39;100.00;98358.25;4853070;59;1136663;-79
2023/12/21 08:11:10;;;;;;;6.55;5.85;;;;;;;5.43;100.00;98350.47;4752635;59;1136593;-85
2023/12/21 08:16:17;;;;;;;19.13;13.10;;;;;;;5.49;100.00;98347.30;4817944;58;1136810;-79
2023/12/21 08:21:22;;;;;;;11.27;9.83;;;;;;;5.54;100.00;98326.22;4866219;59;1141163;-82
2023/12/21 08:26:28;;;;;;;11.33;8.00;;;;;;;5.59;100.00;98317.95;4808772;58;1138983;-80
2023/12/21 08:31:34;;;;;;;3.12;2.83;;;;;;;5.63;100.00;98303.59;4792658;59;1139143;-80
2023/12/21 08:36:39;;;;;;;2.23;2.13;;;;;;;5.68;100.00;98291.34;4790614;59;1137182;-82
2023/12/21 08:41:45;;;;;;;4.93;4.27;;;;;;;5.72;100.00;98278.30;4888087;58;1146350;-82
2023/12/21 08:46:50;;;;;;;4.47;4.07;;;;;;;5.78;100.00;98265.93;4863879;58;1136517;-82
2023/12/21 08:51:56;;;;;;;5.90;4.10;;;;;;;5.83;100.00;98255.81;4737334;60;1136662;-79
2023/12/21 08:57:01;;;;;;;6.93;2.77;;;;;;;5.86;100.00;98241.93;4747325;60;1136684;-81
2023/12/21 09:02:07;;;;;;;6.80;5.07;;;;;;;5.89;100.00;98220.69;4699030;60;1136861;-80
2023/12/21 09:07:12;;;;;;;2.67;2.47;;;;;;;5.93;100.00;98212.05;4707464;60;1136888;-79
2023/12/21 09:12:21;;;;;;;6.33;5.13;;;;;;;5.95;100.00;98192.58;4734382;60;1136795;-80
2023/12/21 09:17:27;;;;;;;7.10;4.90;;;;;;;6.00;100.00;98186.87;4706635;60;1136709;-81
2023/12/21 09:22:32;;;;;;;8.07;5.83;;;;;;;6.01;100.00;98160.97;4709462;60;1136609;-79
2023/12/21 09:27:39;;;;;;;18.60;7.13;;;;;;;6.04;100.00;98146.25;4711518;60;1136953;-79
2023/12/21 09:32:45;;;;;;;24.20;8.93;;;;;;;6.08;100.00;98117.44;4841527;57;1138808;-72
2023/12/21 09:37:50;;;;;;;20.10;7.92;;;;;;;6.14;100.00;98105.50;4804830;58;1138924;-71
2023/12/21 09:42:59;;;;;;;55.52;13.18;;;;;;;6.16;100.00;98086.00;4782062;59;1138836;-72
2023/12/21 09:48:07;;;;;;;29.20;9.83;;;;;;;6.21;100.00;98084.25;4809493;59;1140884;-72
2023/12/21 09:53:15;;;;;;;21.42;8.18;;;;;;;6.21;100.00;98060.62;4736162;59;1138692;-70
2023/12/21 09:58:21;;;;;;;21.27;10.97;;;;;;;6.23;100.00;98041.63;4798949;59;1138710;-74
2023/12/21 10:03:26;;;;;;;10.97;6.33;;;;;;;6.25;100.00;98014.74;4796334;59;1140873;-74
2023/12/21 10:08:35;;;;;;;9.30;5.33;;;;;;;6.25;100.00;98010.31;4794293;59;1138973;-74
2023/12/21 10:13:55;;;;;;;10.03;3.90;;;;;;;6.26;100.00;97996.70;4776135;59;1136659;-72
2023/12/21 10:18:53;;;;;;;;;;;;;;;6.29;100.00;97985.88;4778233;59;1139201;-73
2023/12/21 10:23:59;;;;;;;5.08;2.35;;;;;;;6.29;100.00;97958.31;4803267;59;971988;-74
2023/12/21 10:29:04;;;;;;;10.00;3.93;;;;;;;6.30;100.00;97943.73;4779168;59;1134965;-75
2023/12/21 10:34:10;;;;;;;5.70;2.70;;;;;;;6.29;100.00;97923.70;4770716;59;1136538;-76
2023/12/21 10:39:17;;;;;;;7.40;4.70;;;;;;;6.31;100.00;97901.23;4794538;59;1136782;-77
2023/12/21 10:44:23;;;;;;;7.63;4.50;;;;;;;6.32;100.00;97884.52;4775727;59;1136506;-79
2023/12/21 10:49:29;;;;;;;3.43;2.47;;;;;;;6.31;100.00;97874.50;4757065;59;1136887;-70
2023/12/21 10:54:35;;;;;;;3.50;3.07;;;;;;;6.31;100.00;97840.38;4730094;59;1134565;-72
2023/12/21 10:59:43;;;;;;;3.60;3.30;;;;;;;6.28;100.00;97828.87;4744201;59;1134703;-75
2023/12/21 11:04:49;;;;;;;1.40;1.30;;;;;;;6.29;100.00;97820.03;4731040;59;1138279;-75
2023/12/21 11:09:56;;;;;;;3.55;2.12;;;;;;;6.27;100.00;97789.66;4751053;59;1134919;-79
2023/12/21 11:15:02;;;;;;;2.55;2.20;;;;;;;6.30;100.00;97778.86;4653286;60;1136654;-75
2023/12/21 11:20:11;;;;;;;3.80;2.97;;;;;;;6.30;100.00;97749.98;4664755;59;1136977;-81
2023/12/21 11:25:22;;;;;;;6.27;4.47;;;;;;;6.33;100.00;97728.67;4803627;59;1136529;-74
2023/12/21 11:30:32;;;;;;;2.60;2.35;;;;;;;6.33;100.00;97709.80;4719785;59;1136600;-74
2023/12/21 11:35:39;;;;;;;4.50;1.40;;;;;;;6.35;100.00;97694.72;4755524;59;1136809;-77
2023/12/21 11:40:49;;;;;;;4.50;1.80;;;;;;;6.35;100.00;97684.72;4743804;59;1136836;-76
2023/12/21 11:45:56;;;;;;;5.35;3.60;;;;;;;6.37;100.00;97655.69;4762721;59;1136987;-74
2023/12/21 11:51:04;;;;;;;1.92;1.45;;;;;;;6.37;100.00;97632.05;4787739;58;1136485;-80
2023/12/21 11:56:16;;;;;;;4.07;1.17;;;;;;;6.37;100.00;97607.94;4882281;58;1136548;-77
2023/12/21 12:01:27;;;;;;;1.23;0.93;;;;;;;6.37;100.00;97580.38;4837826;59;1136655;-76
2023/12/21 12:06:34;;;;;;;1.73;1.40;;;;;;;6.38;100.00;97563.65;4876484;58;1136568;-77
2023/12/21 12:11:41;;;;;;;1.27;1.00;;;;;;;6.38;100.00;97546.59;4849570;58;1136865;-72
2023/12/21 12:16:47;;;;;;;2.30;1.63;;;;;;;6.39;100.00;97525.91;4881474;58;1136679;-75
2023/12/21 12:21:53;;;;;;;1.57;0.90;;;;;;;6.41;100.00;97494.25;4829812;58;1136942;-72
2023/12/21 12:26:59;;;;;;;2.70;1.60;;;;;;;6.40;100.00;97469.81;4757970;59;1134733;-71
2023/12/21 12:32:05;;;;;;;1.13;1.13;;;;;;;6.41;100.00;97453.08;4746559;59;1137033;-77
2023/12/21 12:37:10;;;;;;;0.80;0.80;;;;;;;6.41;100.00;97421.58;4758306;59;1136702;-76
2023/12/21 12:42:18;;;;;;;1.27;1.10;;;;;;;6.43;100.00;97414.81;4761437;59;1137164;-78
2023/12/21 12:47:24;;;;;;;1.83;1.37;;;;;;;6.46;100.00;97400.05;4847642;58;1136664;-75
2023/12/21 12:52:29;;;;;;;3.67;1.60;;;;;;;6.48;100.00;97375.27;4868314;58;1136549;-75
2023/12/21 12:57:35;;;;;;;2.30;1.60;;;;;;;6.50;100.00;97358.86;4888890;58;1136840;-76
2023/12/21 13:02:41;;;;;;;2.90;1.47;;;;;;;6.50;100.00;97324.73;4856136;58;1137001;-77
2023/12/21 13:07:46;;;;;;;1.97;1.60;;;;;;;6.53;100.00;97323.57;4877874;58;1137063;-76
2023/12/21 13:12:52;;;;;;;1.50;1.33;;;;;;;6.55;100.00;97295.34;4803266;58;1136700;-73
2023/12/21 13:17:58;;;;;;;5.70;3.12;;;;;;;6.56;100.00;97287.80;4804638;58;1158705;-75
2023/12/21 13:23:03;;;;;;;1.97;1.20;;;;;;;6.56;100.00;97264.16;4814814;58;1136671;-75
2023/12/21 13:28:09;;;;;;;3.17;2.08;;;;;;;6.57;100.00;97242.95;4800173;58;1136744;-74
2023/12/21 13:33:15;;;;;;;3.03;1.27;;;;;;;6.59;100.00;97235.73;4789346;58;1136485;-75
2023/12/21 13:38:20;;;;;;;1.27;0.93;;;;;;;6.62;100.00;97210.94;4817739;58;1136861;-75
2023/12/21 13:43:26;;;;;;;1.20;1.00;;;;;;;6.65;100.00;97211.91;4794890;58;1136670;-76
2023/12/21 13:48:31;;;;;;;1.20;1.20;;;;;;;6.70;100.00;97189.89;4798310;58;1136637;-74
2023/12/21 13:53:37;;;;;;;1.07;0.97;;;;;;;6.72;100.00;97182.66;4821019;58;1136389;-74
2023/12/21 13:58:42;;;;;;;0.97;0.83;;;;;;;6.74;100.00;97126.80;4796280;58;1136622;-74
2023/12/21 14:03:49;;;;;;;2.45;1.05;;;;;;;6.75;100.00;97141.56;4799484;58;1136617;-76
2023/12/21 14:08:54;;;;;;;27.37;11.33;;;;;;;6.77;100.00;97129.58;4816855;58;1136721;-75
2023/12/21 14:14:00;;;;;;;19.07;4.03;;;;;;;6.76;100.00;97110.38;4798752;58;1140910;-74
2023/12/21 14:19:05;;;;;;;41.08;12.53;;;;;;;6.77;100.00;97100.69;4796381;58;1138700;-75
2023/12/21 14:24:11;;;;;;;36.47;10.87;;;;;;;6.78;100.00;97090.01;4815674;58;1140900;-75
2023/12/21 14:29:16;;;;;;;21.53;4.53;;;;;;;6.80;100.00;97081.45;4778879;58;1141306;-73
2023/12/21 14:34:22;;;;;;;15.63;4.73;;;;;;;6.80;100.00;97057.00;4807205;58;1138936;-75
2023/12/21 14:39:28;;;;;;;30.33;11.30;;;;;;;6.80;100.00;97044.69;4811967;58;1138924;-76
2023/12/21 14:44:33;;;;;;;12.43;2.57;;;;;;;6.83;100.00;97021.19;4799274;58;1140773;-74
2023/12/21 14:49:39;;;;;;;10.20;3.30;;;;;;;6.85;100.00;97017.89;4820182;57;1138698;-74
2023/12/21 14:54:45;;;;;;;3.10;2.03;;;;;;;6.88;100.00;97001.25;4811164;58;1138655;-75
2023/12/21 14:59:52;;;;;;;8.60;3.23;;;;;;;6.90;100.00;96982.68;4841862;59;1138712;-75
2023/12/21 15:04:58;;;;;;;11.30;2.90;;;;;;;6.91;100.00;96967.23;4856610;58;1136558;-75
2023/12/21 15:10:04;;;;;;;13.00;4.43;;;;;;;6.94;100.00;96945.37;4828563;59;1138410;-74
2023/12/21 15:15:10;;;;;;;8.50;2.77;;;;;;;6.97;100.00;96938.44;4814698;59;1138348;-75
2023/12/21 15:20:18;;;;;;;9.67;4.40;;;;;;;7.00;100.00;96909.18;4886565;58;1136533;-74
2023/12/21 15:25:24;;;;;;;5.97;3.23;;;;;;;7.03;100.00;96887.77;4846269;58;1136472;-74
2023/12/21 15:30:29;;;;;;;2.53;1.63;;;;;;;7.10;100.00;96873.90;4794996;58;1136613;-75
2023/12/21 15:35:36;;;;;;;4.60;2.33;;;;;;;7.16;100.00;96857.41;4805442;58;1136650;-75
2023/12/21 15:40:42;;;;;;;5.50;2.43;;;;;;;7.18;100.00;96845.67;4795598;58;1136866;-74
2023/12/21 15:45:47;;;;;;;64.90;29.15;;;;;;;7.20;100.00;96837.11;4799412;58;1203503;-75
2023/12/21 15:50:54;;;;;;;12.77;6.83;;;;;;;7.21;100.00;96831.35;4865437;58;1140803;-74
2023/12/21 15:56:00;;;;;;;6.00;2.77;;;;;;;7.23;100.00;96818.34;4635997;58;1139002;-74
2023/12/21 16:01:06;;;;;;;4.05;2.27;;;;;;;7.25;100.00;96805.02;4705790;60;1136626;-74
2023/12/21 16:06:12;;;;;;;6.23;3.00;;;;;;;7.24;100.00;96809.95;4774503;59;1136526;-82
2023/12/21 16:11:17;;;;;;;4.67;1.97;;;;;;;7.21;100.00;96797.19;4776169;59;1136832;-76
2023/12/21 16:16:23;;;;;;;5.90;2.77;;;;;;;7.17;100.00;96774.44;4700838;60;1136731;-75
2023/12/21 16:21:28;;;;;;;6.17;3.23;;;;;;;7.13;100.00;96751.35;4691694;61;1136706;-73
2023/12/21 16:26:44;;;;;;;9.77;6.97;;;;;;;7.09;100.00;96762.73;4758631;59;1136461;-74
2023/12/21 16:31:50;;;;;;;8.13;5.42;;;;;;;7.08;100.00;96742.71;4781880;59;1136863;-76
2023/12/21 16:36:56;;;;;;;19.32;8.58;;;;;;;7.04;100.00;96730.95;4742747;59;1136532;-74
2023/12/21 16:42:03;;;;;;;5.17;3.62;;;;;;;7.02;100.00;96722.47;4786117;60;1139054;-74
2023/12/21 16:47:08;;;;;;;8.27;6.70;;;;;;;7.00;100.00;96699.52;4779580;59;1136385;-79
2023/12/21 16:52:14;;;;;;;13.13;7.37;;;;;;;7.01;100.00;96699.33;4771354;59;1136678;-76
2023/12/21 16:57:20;;;;;;;11.90;6.97;;;;;;;7.05;100.00;96707.12;4773729;60;1138758;-75
2023/12/21 17:02:26;;;;;;;1.23;1.10;;;;;;;7.09;100.00;96706.74;4739687;60;1138753;-75
2023/12/21 17:07:31;;;;;;;1.10;1.10;;;;;;;7.14;100.00;96708.31;4732672;60;1136698;-74
2023/12/21 17:12:38;;;;;;;0.73;0.73;;;;;;;7.18;100.00;96745.03;4720721;61;1136817;-74
2023/12/21 17:22:01;;;;;;;1.67;0.90;;;;;;;7.19;100.00;96774.22;5218030;54;46713;-76
2023/12/21 17:27:07;;;;;;;0.80;0.70;;;;;;;7.19;100.00;96774.22;4829784;59;1132660;-79
2023/12/21 17:32:13;;;;;;;1.20;0.60;;;;;;;7.20;100.00;96777.17;4960355;57;1136491;-75
2023/12/21 17:37:19;;;;;;;1.87;1.00;;;;;;;7.16;100.00;96772.81;4997129;56;1137192;-72
2023/12/21 17:42:24;;;;;;;3.40;1.43;;;;;;;7.14;100.00;96798.46;5096857;56;1137098;-70
2023/12/21 17:47:32;;;;;;;5.20;1.27;;;;;;;7.05;100.00;96768.86;5105256;56;1136785;-71
2023/12/21 17:52:37;;;;;;;3.30;1.00;;;;;;;6.98;100.00;96772.44;5136019;56;1136643;-74
2023/12/21 17:57:43;;;;;;;6.00;1.30;;;;;;;6.88;100.00;96810.81;5003523;56;1136737;-75
2023/12/21 18:02:48;;;;;;;1.83;1.07;;;;;;;6.83;100.00;96817.65;5016494;56;1137067;-73
2023/12/21 18:07:54;;;;;;;8.33;1.30;;;;;;;6.78;100.00;96825.26;5071418;56;1136410;-77
2023/12/21 18:13:00;;;;;;;5.17;1.22;;;;;;;6.75;100.00;96834.31;5051669;56;1136689;-74
2023/12/21 18:18:05;;;;;;;6.13;1.73;;;;;;;6.70;100.00;96845.39;5051129;56;1136927;-74
2023/12/21 18:23:11;;;;;;;5.53;1.00;;;;;;;6.64;100.00;96842.18;5058998;56;1136803;-76
2023/12/21 18:28:17;;;;;;;8.13;1.13;;;;;;;6.59;100.00;96860.78;5034810;56;1136567;-72
2023/12/21 18:33:22;;;;;;;5.13;1.60;;;;;;;6.51;100.00;96870.90;5036980;56;1134479;-76
2023/12/21 18:38:28;;;;;;;10.33;1.27;;;;;;;6.46;100.00;96887.69;5055346;56;1136705;-77
2023/12/21 18:43:33;;;;;;;6.65;1.40;;;;;;;6.42;100.00;96894.28;5059131;55;1138764;-81
2023/12/21 18:48:39;;;;;;;8.23;1.33;;;;;;;6.42;100.00;96890.84;4957592;57;1136966;-74
2023/12/21 18:53:44;;;;;;;2.20;1.22;;;;;;;6.41;100.00;96902.37;4990552;56;1136869;-75
2023/12/21 18:58:52;;;;;;;3.50;2.20;;;;;;;6.38;100.00;96886.48;5121704;56;1136631;-76
2023/12/21 19:03:57;;;;;;;8.90;1.97;;;;;;;6.39;100.00;96899.11;5118588;56;1134703;-75
2023/12/21 19:09:03;;;;;;;3.67;1.23;;;;;;;6.36;100.00;96902.91;5109924;56;1134867;-77
2023/12/21 19:14:09;;;;;;;4.22;0.98;;;;;;;6.33;100.00;96910.63;5138252;56;1134752;-79
2023/12/21 19:19:14;;;;;;;8.00;1.80;;;;;;;6.31;100.00;96920.49;5016085;55;1134689;-76
2023/12/21 19:24:20;;;;;;;10.20;1.70;;;;;;;6.33;100.00;96929.50;4999542;56;1134761;-77
2023/12/21 19:29:27;;;;;;;6.43;1.20;;;;;;;6.32;100.00;96944.43;5070297;56;1136503;-76
2023/12/21 19:34:33;;;;;;;6.80;1.83;;;;;;;6.33;100.00;96949.18;5033689;56;1134762;-74
2023/12/21 19:39:38;;;;;;;9.43;2.27;;;;;;;6.33;100.00;96946.56;5037006;56;1134827;-74
2023/12/21 19:44:44;;;;;;;3.30;1.47;;;;;;;6.33;100.00;96953.12;5046225;56;1134671;-76
2023/12/21 19:49:50;;;;;;;5.80;1.37;;;;;;;6.32;100.00;96955.42;5026105;56;1134608;-75
2023/12/21 19:54:55;;;;;;;6.67;1.82;;;;;;;6.32;100.00;96961.98;4979741;56;1134783;-80
2023/12/21 20:00:01;;;;;;;10.37;2.03;;;;;;;6.29;100.00;96972.83;4991327;56;1139193;-78
2023/12/21 20:05:09;;;;;;;35.43;5.23;;;;;;;6.28;100.00;96975.95;5023601;56;1136854;-75
2023/12/21 20:10:14;;;;;;;10.23;2.17;;;;;;;6.23;100.00;96972.25;5009843;56;1136741;-74
2023/12/21 20:15:21;;;;;;;9.80;2.53;;;;;;;6.17;100.00;96966.39;5015792;57;1136652;-77
2023/12/21 20:20:27;;;;;;;7.85;2.80;;;;;;;6.12;100.00;96982.66;5007766;57;1134755;-76
2023/12/21 20:25:34;;;;;;;4.53;1.30;;;;;;;6.05;100.00;96996.67;5014611;56;1134650;-75
2023/12/21 20:30:40;;;;;;;9.93;2.67;;;;;;;6.04;100.00;97002.91;4997872;57;1134607;-75
2023/12/21 20:35:45;;;;;;;5.95;1.25;;;;;;;5.99;100.00;96990.31;4995036;57;1134571;-74
2023/12/21 20:40:52;;;;;;;9.73;2.33;;;;;;;5.94;100.00;96979.06;5001796;57;1134463;-79
2023/12/21 20:46:01;;;;;;;11.60;2.77;;;;;;;5.88;100.00;96987.62;4994515;57;1134869;-73
2023/12/21 20:51:06;;;;;;;8.03;2.07;;;;;;;5.82;100.00;96993.52;4980956;57;1136698;-75
2023/12/21 20:56:11;;;;;;;8.20;1.95;;;;;;;5.76;100.00;96991.63;5034305;56;1134756;-78
2023/12/21 21:01:17;;;;;;;9.63;2.27;;;;;;;5.71;100.00;96992.63;4997678;57;1134881;-73
2023/12/21 21:06:23;;;;;;;19.45;2.58;;;;;;;5.63;100.00;96991.39;4992327;57;1134704;-72
2023/12/21 21:11:28;;;;;;;7.33;2.27;;;;;;;5.57;100.00;97015.66;4978701;56;1136731;-76
2023/12/21 21:16:34;;;;;;;10.47;2.30;;;;;;;5.53;100.00;97013.87;4954373;57;1134584;-75
2023/12/21 21:21:40;;;;;;;10.77;2.43;;;;;;;5.52;100.00;97031.08;4953638;57;1137020;-74
2023/12/21 21:26:46;;;;;;;4.83;1.83;;;;;;;5.51;100.00;97045.17;5000658;56;1136993;-81
2023/12/21 21:31:51;;;;;;;8.30;1.73;;;;;;;5.48;100.00;97044.23;5056232;56;1134565;-77
2023/12/21 21:36:58;;;;;;;6.62;2.10;;;;;;;5.44;100.00;97059.48;5061898;56;1134552;-79
2023/12/21 21:42:04;;;;;;;11.78;1.60;;;;;;;5.46;100.00;97059.30;5033717;56;1134550;-72
2023/12/21 21:47:09;;;;;;;51.42;10.72;;;;;;;5.46;100.00;97056.69;5068064;56;1136874;-76
2023/12/21 21:52:15;;;;;;;17.60;5.00;;;;;;;5.41;100.00;97062.92;5047815;56;1139218;-73
2023/12/21 21:57:20;;;;;;;9.57;3.07;;;;;;;5.35;100.00;97064.94;5031495;57;1136708;-78
2023/12/21 22:02:26;;;;;;;15.68;3.80;;;;;;;5.29;100.00;97065.93;5065660;56;1134779;-76
2023/12/21 22:07:32;;;;;;;12.73;1.87;;;;;;;5.26;100.00;97067.58;5043542;56;1136987;-72
2023/12/21 22:12:37;;;;;;;12.90;2.60;;;;;;;5.19;100.00;97052.72;5027141;55;1136805;-72
2023/12/21 22:17:43;;;;;;;12.70;2.43;;;;;;;5.17;100.00;97052.07;5027990;56;1136699;-72
2023/12/21 22:22:48;;;;;;;12.47;2.73;;;;;;;5.14;100.00;97050.60;5046968;56;1136844;-72
2023/12/21 22:27:54;;;;;;;11.13;3.97;;;;;;;5.14;100.00;97036.20;5030666;56;1136772;-71
2023/12/21 22:33:02;;;;;;;8.07;2.60;;;;;;;5.14;100.00;97027.03;5088302;56;1136926;-72
2023/12/21 22:38:07;;;;;;;24.82;3.92;;;;;;;5.14;100.00;97025.72;5133253;56;1134683;-73
2023/12/21 22:43:13;;;;;;;17.65;4.20;;;;;;;5.12;100.00;97027.69;5092739;56;1136806;-76
2023/12/21 22:48:20;;;;;;;24.20;3.60;;;;;;;5.10;100.00;97018.36;5028750;57;1136735;-76
2023/12/21 22:53:25;;;;;;;11.23;2.73;;;;;;;5.08;100.00;97014.59;5068209;57;1136740;-71
2023/12/21 22:58:31;;;;;;;18.80;3.43;;;;;;;5.06;100.00;97013.13;5018168;57;1136602;-72
2023/12/21 23:03:37;;;;;;;29.43;4.70;;;;;;;5.12;100.00;97015.08;4964919;57;1136841;-73
2023/12/21 23:08:42;;;;;;;25.12;3.33;;;;;;;5.13;100.00;97028.02;5010276;57;1137013;-70
2023/12/21 23:13:48;;;;;;;12.77;2.20;;;;;;;5.17;100.00;97014.09;5068446;57;1136827;-69
2023/12/21 23:18:53;;;;;;;22.00;5.22;;;;;;;5.18;100.00;97015.72;5048825;57;1137333;-70
2023/12/21 23:23:59;;;;;;;14.32;2.90;;;;;;;5.19;100.00;97021.29;5038753;57;1136854;-72